Time;durP1;ratioP1;P1;durP2;ratioP2;P2;SDS_P1;SDS_P2;PMS_P1;PMS_P2;Temp;Humidity;BMP_temperature;BMP_pressure;BME280_temperature;BME280_humidity;BME280_pressure;Samples;Min_cycle;Max_cycle;Signal;HPM_P1;HPM_P2
2024/01/03 00:00:58;;;;;;;22.05;10.93;;;4.50;99.90;;;;;;5089527;27;22591;-80
2024/01/03 00:03:28;;;;;;;23.40;11.75;;;4.50;99.90;;;;;;5071548;28;20062;-80
2024/01/03 00:05:56;;;;;;;28.05;12.15;;;4.50;99.90;;;;;;5075279;28;22523;-80
2024/01/03 00:08:28;;;;;;;25.40;12.43;;;4.50;99.90;;;;;;5073851;28;20042;-81
2024/01/03 00:10:58;;;;;;;25.83;12.07;;;4.50;99.90;;;;;;5088114;27;20059;-82
2024/01/03 00:13:55;;;;;;;26.73;12.40;;;4.50;99.90;;;;;;5091317;27;20055;-80
2024/01/03 00:16:24;;;;;;;24.55;11.55;;;4.50;99.90;;;;;;5090908;27;20056;-79
2024/01/03 00:18:54;;;;;;;23.27;10.38;;;4.50;99.90;;;;;;5084345;28;20043;-79
2024/01/03 00:21:25;;;;;;;27.67;10.85;;;4.50;99.90;;;;;;5071520;28;22512;-78
2024/01/03 00:23:57;;;;;;;24.77;10.38;;;4.50;99.90;;;;;;5076905;28;20055;-81
2024/01/03 00:26:26;;;;;;;23.85;10.43;;;4.50;99.90;;;;;;5076836;28;20525;-81
2024/01/03 00:28:56;;;;;;;22.33;9.90;;;4.50;99.90;;;;;;5073481;28;20047;-80
2024/01/03 00:31:37;;;;;;;23.95;10.57;;;4.50;99.90;;;;;;5089703;27;20191;-81
2024/01/03 00:34:15;;;;;;;21.80;10.05;;;4.60;99.90;;;;;;5070615;28;20083;-80
2024/01/03 00:36:44;;;;;;;27.25;10.95;;;4.60;99.90;;;;;;5074404;28;20056;-81
2024/01/03 00:39:14;;;;;;;22.55;10.75;;;4.50;99.90;;;;;;5074836;28;20047;-82
2024/01/03 00:41:42;;;;;;;20.88;9.98;;;4.60;99.90;;;;;;5088942;27;20059;-81
2024/01/03 00:44:11;;;;;;;23.52;9.48;;;4.50;99.90;;;;;;5086816;27;20048;-80
2024/01/03 00:46:39;;;;;;;19.88;10.07;;;4.60;99.90;;;;;;5087469;27;22557;-80
2024/01/03 00:49:08;;;;;;;21.20;8.55;;;4.60;99.90;;;;;;5074766;28;20048;-80
2024/01/03 00:51:40;;;;;;;24.60;9.30;;;4.60;99.90;;;;;;5088744;27;20141;-80
2024/01/03 00:54:09;;;;;;;17.45;8.75;;;4.60;99.90;;;;;;5076312;28;20695;-81
2024/01/03 00:56:38;;;;;;;20.08;8.63;;;4.60;99.90;;;;;;5091947;27;20058;-80
2024/01/03 00:59:07;;;;;;;19.75;9.55;;;4.70;99.90;;;;;;5097275;27;20048;-81
2024/01/03 01:01:35;;;;;;;20.02;8.43;;;4.70;99.90;;;;;;5073057;28;20063;-79
2024/01/03 01:04:04;;;;;;;19.15;8.43;;;4.60;99.90;;;;;;5088357;27;20511;-80
2024/01/03 01:06:33;;;;;;;21.92;9.20;;;4.70;99.90;;;;;;5070379;28;20052;-81
2024/01/03 01:09:03;;;;;;;22.10;9.40;;;4.70;99.90;;;;;;5073256;28;20039;-79
2024/01/03 01:11:32;;;;;;;19.20;8.20;;;4.60;99.90;;;;;;5078845;28;20043;-80
2024/01/03 01:14:03;;;;;;;16.27;7.95;;;4.70;99.90;;;;;;5070458;28;20063;-80
2024/01/03 01:16:31;;;;;;;17.25;8.23;;;4.60;99.90;;;;;;5087788;27;20075;-81
2024/01/03 01:19:00;;;;;;;18.02;7.88;;;4.60;99.90;;;;;;5073855;28;20628;-80
2024/01/03 01:21:29;;;;;;;15.50;8.05;;;4.60;99.90;;;;;;5074431;28;20043;-80
2024/01/03 01:23:57;;;;;;;15.82;7.57;;;4.60;99.90;;;;;;5088109;27;20827;-80
2024/01/03 01:26:26;;;;;;;16.50;8.02;;;4.50;99.90;;;;;;5070561;28;20522;-80
2024/01/03 01:28:54;;;;;;;20.23;8.02;;;4.50;99.90;;;;;;5078925;28;20050;-80
2024/01/03 01:31:24;;;;;;;21.25;9.40;;;4.60;99.90;;;;;;5079522;28;20079;-79
2024/01/03 01:33:52;;;;;;;20.65;8.50;;;4.60;99.90;;;;;;5074277;28;22533;-79
2024/01/03 01:36:21;;;;;;;22.55;8.80;;;4.60;99.90;;;;;;5081103;28;20040;-81
2024/01/03 01:38:49;;;;;;;19.23;8.63;;;4.60;99.90;;;;;;5087824;27;20048;-80
2024/01/03 01:41:18;;;;;;;19.55;7.45;;;4.60;99.90;;;;;;5075578;28;20048;-80
2024/01/03 01:43:47;;;;;;;17.08;7.80;;;4.60;99.90;;;;;;5085419;27;20040;-80
2024/01/03 01:46:16;;;;;;;17.02;7.43;;;4.60;99.90;;;;;;5084387;27;20052;-82
2024/01/03 01:48:47;;;;;;;17.08;7.55;;;4.60;99.90;;;;;;5073649;28;20058;-81
2024/01/03 01:51:17;;;;;;;21.85;8.10;;;4.60;99.90;;;;;;5089374;27;20101;-80
2024/01/03 01:53:45;;;;;;;16.92;6.65;;;4.70;99.90;;;;;;5071843;28;20052;-80
2024/01/03 01:56:14;;;;;;;11.38;5.47;;;4.70;99.90;;;;;;5071198;28;20048;-82
2024/01/03 01:58:43;;;;;;;15.20;5.95;;;4.80;99.90;;;;;;5070251;28;20056;-80
2024/01/03 02:01:13;;;;;;;11.90;5.93;;;4.70;99.90;;;;;;5098996;28;20495;-80
2024/01/03 02:03:42;;;;;;;11.90;5.28;;;4.70;99.90;;;;;;5082006;28;20036;-81
2024/01/03 02:06:12;;;;;;;12.45;5.45;;;4.70;99.90;;;;;;5072428;28;20051;-79
2024/01/03 02:08:40;;;;;;;14.57;4.65;;;4.70;99.90;;;;;;5086683;27;20048;-79
2024/01/03 02:11:09;;;;;;;14.35;4.65;;;4.80;99.90;;;;;;5075152;28;20044;-80
2024/01/03 02:13:37;;;;;;;9.65;4.25;;;4.80;99.90;;;;;;5071188;28;20539;-79
2024/01/03 02:16:07;;;;;;;7.45;3.53;;;4.80;99.90;;;;;;5090087;27;20165;-81
2024/01/03 02:18:36;;;;;;;10.63;3.30;;;4.80;99.90;;;;;;5077837;28;20094;-79
2024/01/03 02:21:13;;;;;;;7.57;3.55;;;4.90;99.90;;;;;;5072593;28;20422;-79
2024/01/03 02:23:41;;;;;;;6.38;2.50;;;4.90;99.90;;;;;;5070088;28;20142;-79
2024/01/03 02:26:10;;;;;;;6.82;2.70;;;5.00;99.90;;;;;;5089363;27;20126;-80
2024/01/03 02:28:53;;;;;;;7.20;2.40;;;5.00;99.90;;;;;;5073107;28;20664;-80
2024/01/03 02:31:21;;;;;;;6.30;3.08;;;5.00;99.90;;;;;;5091123;27;20923;-80
2024/01/03 02:33:49;;;;;;;8.48;2.50;;;5.10;99.90;;;;;;5070808;28;20051;-81
2024/01/03 02:36:18;;;;;;;9.75;2.90;;;5.10;99.90;;;;;;5071869;28;20379;-81
2024/01/03 02:38:51;;;;;;;10.27;2.95;;;5.10;99.90;;;;;;5072012;28;20047;-82
2024/01/03 02:41:20;;;;;;;5.82;2.88;;;5.20;99.90;;;;;;5072501;28;20115;-81
2024/01/03 02:43:49;;;;;;;7.35;2.67;;;5.10;99.90;;;;;;5070751;28;20059;-82
2024/01/03 02:46:19;;;;;;;7.13;2.88;;;5.20;99.90;;;;;;5086437;27;20056;-83
2024/01/03 02:48:48;;;;;;;8.50;2.50;;;5.20;99.90;;;;;;5083979;27;20059;-81
2024/01/03 02:51:19;;;;;;;5.60;2.60;;;5.20;99.90;;;;;;5066692;28;20043;-82
2024/01/03 02:53:48;;;;;;;7.45;2.83;;;5.20;99.90;;;;;;5087334;27;20071;-80
2024/01/03 02:56:17;;;;;;;7.10;2.70;;;5.20;99.90;;;;;;5071172;28;23576;-82
2024/01/03 02:58:45;;;;;;;5.90;2.35;;;5.20;99.90;;;;;;5072678;28;20306;-82
2024/01/03 03:01:14;;;;;;;8.30;3.50;;;5.20;99.90;;;;;;5072120;28;20140;-79
2024/01/03 03:03:41;;;;;;;6.60;2.65;;;5.30;99.90;;;;;;5085401;28;20040;-83
2024/01/03 03:06:10;;;;;;;7.82;2.70;;;5.30;99.90;;;;;;5074402;28;20140;-84
2024/01/03 03:08:40;;;;;;;10.40;3.08;;;5.30;99.90;;;;;;5073254;28;20048;-82
2024/01/03 03:11:08;;;;;;;9.38;2.78;;;5.30;99.90;;;;;;5072470;28;20041;-81
2024/01/03 03:13:37;;;;;;;6.38;2.90;;;5.20;99.90;;;;;;5073125;28;20197;-83
2024/01/03 03:16:07;;;;;;;4.25;2.17;;;5.30;99.90;;;;;;5088993;28;20044;-82
2024/01/03 03:18:36;;;;;;;8.73;2.97;;;5.30;99.90;;;;;;5071880;28;20148;-82
2024/01/03 03:21:06;;;;;;;9.48;3.28;;;5.30;99.90;;;;;;5077890;28;20050;-83
2024/01/03 03:23:35;;;;;;;8.52;3.25;;;5.30;99.90;;;;;;5079696;28;20147;-84
2024/01/03 03:26:06;;;;;;;11.88;3.97;;;5.40;99.90;;;;;;5076237;28;20216;-83
2024/01/03 03:28:35;;;;;;;6.22;2.63;;;5.40;99.90;;;;;;5079047;28;22250;-83
2024/01/03 03:31:04;;;;;;;8.88;2.88;;;5.30;99.90;;;;;;5090955;27;20414;-82
2024/01/03 03:33:38;;;;;;;5.45;2.28;;;5.40;99.90;;;;;;5074699;28;20047;-84
2024/01/03 03:36:12;;;;;;;10.25;2.83;;;5.40;99.90;;;;;;5089271;27;20060;-82
2024/01/03 03:38:41;;;;;;;8.55;3.20;;;5.40;99.90;;;;;;5079028;28;20130;-82
2024/01/03 03:41:13;;;;;;;6.40;2.67;;;5.40;99.90;;;;;;5080789;28;20048;-84
2024/01/03 03:43:42;;;;;;;7.25;2.70;;;5.40;99.90;;;;;;5074391;28;20441;-85
2024/01/03 03:46:11;;;;;;;8.43;3.35;;;5.40;99.90;;;;;;5069583;28;22453;-84
2024/01/03 03:48:40;;;;;;;7.97;2.95;;;5.40;99.90;;;;;;5072371;28;20059;-84
2024/01/03 03:51:08;;;;;;;10.02;2.92;;;5.40;99.90;;;;;;5075746;28;20039;-84
2024/01/03 03:53:37;;;;;;;8.02;3.33;;;5.40;99.90;;;;;;5076941;28;20054;-84
2024/01/03 03:56:06;;;;;;;7.43;2.63;;;5.40;99.90;;;;;;5078106;28;20044;-84
2024/01/03 03:58:35;;;;;;;6.97;2.70;;;5.40;99.90;;;;;;5076554;28;20058;-83
2024/01/03 04:01:07;;;;;;;10.15;3.33;;;5.40;99.90;;;;;;5075718;28;20060;-84
2024/01/03 04:03:36;;;;;;;5.10;2.53;;;5.40;99.90;;;;;;5074109;28;20060;-84
2024/01/03 04:06:05;;;;;;;8.73;2.55;;;5.40;99.90;;;;;;5076693;28;20171;-83
2024/01/03 04:08:34;;;;;;;7.93;3.08;;;5.50;99.90;;;;;;5075917;28;20044;-84
2024/01/03 04:11:04;;;;;;;6.30;2.30;;;5.40;99.90;;;;;;5077845;28;20044;-83
2024/01/03 04:13:32;;;;;;;9.82;2.85;;;5.40;99.90;;;;;;5073897;28;20587;-83
2024/01/03 04:16:05;;;;;;;8.98;2.80;;;5.40;99.90;;;;;;5073446;28;20465;-84
2024/01/03 04:18:34;;;;;;;7.53;2.22;;;5.40;99.90;;;;;;5090625;27;20048;-83
2024/01/03 04:21:05;;;;;;;8.95;2.50;;;5.50;99.90;;;;;;5075404;28;20754;-84
2024/01/03 04:23:35;;;;;;;4.30;2.00;;;5.40;99.90;;;;;;5075469;28;20067;-83
2024/01/03 04:26:03;;;;;;;11.25;2.88;;;5.50;99.90;;;;;;5074487;28;20048;-83
2024/01/03 04:28:32;;;;;;;7.20;2.20;;;5.40;99.90;;;;;;5071330;28;20081;-83
2024/01/03 04:31:01;;;;;;;6.82;2.65;;;5.40;99.90;;;;;;5077065;28;20044;-84
2024/01/03 04:33:30;;;;;;;6.10;2.35;;;5.40;99.90;;;;;;5089523;27;20143;-84
2024/01/03 04:35:59;;;;;;;7.00;2.42;;;5.50;99.90;;;;;;5073784;28;22565;-84
2024/01/03 04:38:28;;;;;;;8.93;2.65;;;5.50;99.90;;;;;;5086813;27;20125;-85
2024/01/03 04:40:57;;;;;;;7.35;2.22;;;5.40;99.90;;;;;;5088611;27;20041;-85
2024/01/03 04:43:25;;;;;;;4.75;2.10;;;5.50;99.90;;;;;;5073152;28;20273;-84
2024/01/03 04:45:54;;;;;;;6.93;2.63;;;5.40;99.90;;;;;;5076443;28;20047;-85
2024/01/03 04:48:24;;;;;;;5.68;2.15;;;5.40;99.90;;;;;;5079575;28;20461;-85
2024/01/03 04:50:52;;;;;;;8.63;2.35;;;5.50;99.90;;;;;;5073782;28;20765;-84
2024/01/03 04:53:21;;;;;;;6.88;2.00;;;5.50;99.90;;;;;;5074983;28;20051;-85
2024/01/03 04:55:49;;;;;;;8.90;2.40;;;5.50;99.90;;;;;;5083560;28;20043;-85
2024/01/03 04:58:17;;;;;;;9.27;2.92;;;5.40;99.90;;;;;;5093119;27;20060;-84
2024/01/03 05:00:46;;;;;;;7.68;3.17;;;5.50;99.90;;;;;;5068114;28;20052;-84
2024/01/03 05:03:16;;;;;;;8.98;3.25;;;5.40;99.90;;;;;;5075021;28;20066;-84
2024/01/03 05:05:46;;;;;;;6.90;3.20;;;5.50;99.90;;;;;;5089801;27;20073;-85
2024/01/03 05:08:15;;;;;;;9.80;3.55;;;5.50;99.90;;;;;;5087716;27;20056;-84
2024/01/03 05:10:43;;;;;;;7.70;3.42;;;5.40;99.90;;;;;;5069843;28;20927;-85
2024/01/03 05:13:12;;;;;;;10.05;3.83;;;5.40;99.90;;;;;;5071372;28;20055;-86
2024/01/03 05:15:40;;;;;;;11.15;3.95;;;5.40;99.90;;;;;;5070180;28;20098;-85
2024/01/03 05:18:09;;;;;;;14.00;4.20;;;5.40;99.90;;;;;;5084835;27;20131;-85
2024/01/03 05:20:38;;;;;;;10.15;3.72;;;5.50;99.90;;;;;;5086266;27;20295;-84
2024/01/03 05:23:07;;;;;;;12.07;3.90;;;5.50;99.90;;;;;;5092204;27;20051;-84
2024/01/03 05:25:36;;;;;;;11.05;4.00;;;5.50;99.90;;;;;;5088062;27;20284;-85
2024/01/03 05:28:05;;;;;;;8.00;3.25;;;5.40;99.90;;;;;;5088379;27;20102;-85
2024/01/03 05:30:34;;;;;;;9.48;4.05;;;5.40;99.90;;;;;;5072595;28;20051;-84
2024/01/03 05:33:02;;;;;;;12.60;3.55;;;5.50;99.90;;;;;;5073606;28;20522;-84
2024/01/03 05:35:31;;;;;;;10.52;3.90;;;5.50;99.90;;;;;;5088159;27;20102;-85
2024/01/03 05:37:59;;;;;;;10.63;3.70;;;5.50;99.90;;;;;;5072231;28;20491;-85
2024/01/03 05:40:29;;;;;;;11.23;3.53;;;5.50;99.90;;;;;;5070873;28;20079;-85
2024/01/03 05:42:58;;;;;;;11.43;3.70;;;5.50;99.90;;;;;;5078432;28;20050;-85
2024/01/03 05:45:26;;;;;;;10.98;4.32;;;5.50;99.90;;;;;;5090122;28;20052;-83
2024/01/03 05:47:54;;;;;;;8.82;3.92;;;5.50;99.90;;;;;;5079865;28;20059;-84
2024/01/03 05:50:24;;;;;;;9.65;4.38;;;5.50;99.90;;;;;;5089926;27;20532;-84
2024/01/03 05:52:52;;;;;;;10.55;4.78;;;5.50;99.90;;;;;;5073466;28;22420;-84
2024/01/03 05:55:21;;;;;;;10.10;4.35;;;6.00;99.90;;;;;;5076187;28;20058;-84
2024/01/03 05:57:50;;;;;;;9.30;3.45;;;5.50;99.90;;;;;;5078504;28;20754;-85
2024/01/03 06:00:19;;;;;;;9.38;3.40;;;5.50;99.90;;;;;;5070730;28;20064;-84
2024/01/03 06:02:47;;;;;;;12.93;3.83;;;5.50;99.90;;;;;;5068771;28;20547;-85
2024/01/03 06:05:18;;;;;;;9.68;3.67;;;5.50;99.90;;;;;;5079526;28;20051;-84
2024/01/03 06:07:47;;;;;;;7.50;3.00;;;5.50;99.90;;;;;;5074175;28;20058;-84
2024/01/03 06:10:15;;;;;;;8.07;2.97;;;5.50;99.90;;;;;;5086895;27;20066;-85
2024/01/03 06:12:44;;;;;;;10.77;3.67;;;5.50;99.90;;;;;;5076239;28;20043;-85
2024/01/03 06:15:14;;;;;;;7.32;3.10;;;5.50;99.90;;;;;;5074088;28;20166;-85
2024/01/03 06:17:42;;;;;;;45.40;23.42;;;5.60;99.90;;;;;;5089033;27;20063;-85
2024/01/03 06:20:11;;;;;;;8.38;3.67;;;5.50;99.90;;;;;;5088637;27;20182;-84
2024/01/03 06:22:39;;;;;;;6.10;3.15;;;5.60;99.90;;;;;;5076544;28;20419;-86
2024/01/03 06:25:08;;;;;;;7.43;2.75;;;5.60;99.90;;;;;;5074930;28;20059;-86
2024/01/03 06:27:37;;;;;;;25.38;10.32;;;5.60;99.90;;;;;;5085409;27;20051;-86
2024/01/03 06:30:07;;;;;;;12.10;4.30;;;5.50;99.90;;;;;;5086158;27;20047;-84
2024/01/03 06:32:36;;;;;;;8.60;3.28;;;5.60;99.90;;;;;;5084657;28;20062;-85
2024/01/03 06:35:06;;;;;;;8.18;3.45;;;5.50;99.90;;;;;;5070716;28;20051;-86
2024/01/03 06:37:34;;;;;;;6.57;3.25;;;5.60;99.90;;;;;;5087521;27;20051;-85
2024/01/03 06:40:03;;;;;;;6.65;2.80;;;5.50;99.90;;;;;;5085206;28;20052;-87
2024/01/03 06:42:32;;;;;;;4.18;2.10;;;5.50;99.90;;;;;;5072089;28;20062;-86
2024/01/03 06:45:00;;;;;;;11.38;2.38;;;5.50;99.90;;;;;;5095041;27;20047;-85
2024/01/03 06:47:31;;;;;;;5.88;2.45;;;5.50;99.90;;;;;;5076688;28;20040;-85
2024/01/03 06:50:01;;;;;;;6.65;2.47;;;5.50;99.90;;;;;;5092650;28;20056;-86
2024/01/03 06:52:29;;;;;;;7.72;2.50;;;5.50;99.90;;;;;;5070444;28;20158;-84
2024/01/03 06:54:58;;;;;;;11.40;6.20;;;5.60;99.90;;;;;;5092932;28;20055;-84
2024/01/03 06:57:27;;;;;;;9.52;4.43;;;5.50;99.90;;;;;;5089610;28;20098;-85
2024/01/03 06:59:55;;;;;;;8.23;3.33;;;5.50;99.90;;;;;;5094897;28;20052;-86
2024/01/03 07:02:25;;;;;;;5.85;2.50;;;5.50;99.90;;;;;;5069289;28;20055;-85
2024/01/03 07:04:54;;;;;;;6.05;2.53;;;5.40;99.90;;;;;;5071990;28;20717;-85
2024/01/03 07:07:24;;;;;;;8.57;4.90;;;5.40;99.90;;;;;;5083952;28;20123;-84
2024/01/03 07:09:53;;;;;;;6.47;3.58;;;5.50;99.90;;;;;;5083521;28;20052;-84
2024/01/03 07:12:21;;;;;;;13.95;5.13;;;5.50;99.90;;;;;;5069087;28;20048;-85
2024/01/03 07:14:50;;;;;;;10.90;5.30;;;5.50;99.90;;;;;;5090987;28;20568;-84
2024/01/03 07:17:18;;;;;;;7.40;3.05;;;5.50;99.90;;;;;;5073577;28;20300;-85
2024/01/03 07:19:46;;;;;;;7.95;2.90;;;5.50;99.90;;;;;;5073569;28;22968;-85
2024/01/03 07:22:15;;;;;;;5.50;2.65;;;5.50;99.90;;;;;;5074877;28;20052;-85
2024/01/03 07:24:47;;;;;;;7.35;3.67;;;5.50;99.90;;;;;;5072551;28;20053;-86
2024/01/03 07:27:16;;;;;;;6.60;2.22;;;5.60;99.90;;;;;;5087725;28;20071;-84
2024/01/03 07:29:48;;;;;;;6.47;2.35;;;5.60;99.90;;;;;;5093046;28;20056;-82
2024/01/03 07:32:17;;;;;;;5.10;2.28;;;5.60;99.90;;;;;;5090407;28;20066;-84
2024/01/03 07:34:45;;;;;;;10.95;4.57;;;5.70;99.90;;;;;;5085508;28;21255;-85
2024/01/03 07:37:14;;;;;;;15.63;6.72;;;5.80;99.90;;;;;;5075600;28;20091;-86
2024/01/03 07:39:42;;;;;;;11.95;3.58;;;5.80;99.90;;;;;;5073494;28;20044;-86
2024/01/03 07:42:12;;;;;;;8.90;3.00;;;5.80;99.90;;;;;;5074202;28;20093;-84
2024/01/03 07:44:42;;;;;;;40.95;13.48;;;5.90;99.90;;;;;;5084987;28;20051;-84
2024/01/03 07:47:11;;;;;;;23.85;8.15;;;5.90;99.90;;;;;;5063306;28;20091;-84
2024/01/03 07:49:42;;;;;;;21.95;6.97;;;5.90;99.90;;;;;;5086696;28;20156;-84
2024/01/03 07:52:11;;;;;;;28.17;11.90;;;5.80;99.90;;;;;;5087074;28;20719;-86
2024/01/03 07:54:39;;;;;;;16.75;8.20;;;5.80;99.90;;;;;;5073163;28;20414;-85
2024/01/03 07:57:08;;;;;;;12.45;6.68;;;5.90;99.90;;;;;;5071182;28;20078;-83
2024/01/03 07:59:40;;;;;;;7.00;3.63;;;6.10;99.90;;;;;;5074288;28;20464;-85
2024/01/03 08:02:09;;;;;;;5.82;1.92;;;6.20;99.90;;;;;;5073521;28;20455;-83
2024/01/03 08:04:38;;;;;;;9.93;4.03;;;6.30;99.90;;;;;;5094725;27;20093;-87
2024/01/03 08:07:06;;;;;;;48.03;18.48;;;6.30;99.90;;;;;;5087283;27;20059;-84
2024/01/03 08:09:37;;;;;;;20.48;7.65;;;6.30;99.90;;;;;;5088542;27;20074;-84
2024/01/03 08:12:08;;;;;;;10.10;4.47;;;6.40;99.90;;;;;;5080354;28;20081;-86
2024/01/03 08:14:38;;;;;;;14.20;6.93;;;6.60;99.90;;;;;;5076881;28;20056;-84
2024/01/03 08:17:07;;;;;;;8.45;4.43;;;6.70;99.90;;;;;;5076947;28;20423;-85
2024/01/03 08:19:35;;;;;;;7.10;3.58;;;6.90;99.90;;;;;;5078554;28;20217;-85
2024/01/03 08:22:04;;;;;;;16.23;5.10;;;7.10;99.90;;;;;;5083768;28;20112;-85
2024/01/03 08:24:32;;;;;;;7.07;3.85;;;7.30;99.90;;;;;;5075012;28;20040;-83
2024/01/03 08:27:01;;;;;;;9.25;4.35;;;7.20;99.90;;;;;;5074366;28;20133;-81
2024/01/03 08:29:30;;;;;;;7.93;2.50;;;7.30;99.90;;;;;;5074435;28;20465;-83
2024/01/03 08:32:00;;;;;;;7.38;2.83;;;7.30;99.90;;;;;;5076137;28;20044;-83
2024/01/03 08:34:29;;;;;;;7.13;4.10;;;7.30;99.90;;;;;;5071032;28;20052;-81
2024/01/03 08:36:57;;;;;;;10.05;3.33;;;7.20;99.90;;;;;;5078553;28;20048;-81
2024/01/03 08:39:26;;;;;;;6.05;1.92;;;7.20;99.90;;;;;;5089462;27;20495;-81
2024/01/03 08:41:54;;;;;;;7.40;2.72;;;7.20;99.90;;;;;;5090674;27;20518;-83
2024/01/03 08:44:23;;;;;;;7.22;2.10;;;7.20;99.90;;;;;;5075436;28;20517;-79
2024/01/03 08:46:51;;;;;;;8.25;4.07;;;7.20;99.90;;;;;;5088896;27;20077;-82
2024/01/03 08:49:21;;;;;;;4.40;1.48;;;7.10;99.90;;;;;;5075616;28;20058;-80
2024/01/03 08:51:50;;;;;;;4.88;2.00;;;7.10;99.90;;;;;;5089932;27;20920;-81
2024/01/03 08:54:19;;;;;;;6.65;1.85;;;7.10;99.90;;;;;;5071820;28;20039;-80
2024/01/03 08:56:50;;;;;;;6.90;2.38;;;7.10;99.90;;;;;;5092985;27;20063;-80
2024/01/03 08:59:18;;;;;;;4.38;2.17;;;7.10;99.90;;;;;;5089777;27;20056;-78
2024/01/03 09:01:52;;;;;;;5.05;2.30;;;7.00;99.90;;;;;;5072288;28;20140;-79
2024/01/03 09:04:22;;;;;;;12.23;4.68;;;7.10;99.90;;;;;;5087891;27;20738;-80
2024/01/03 09:06:52;;;;;;;8.70;3.55;;;7.10;99.90;;;;;;5076201;28;20507;-79
2024/01/03 09:09:21;;;;;;;6.15;1.48;;;7.10;99.90;;;;;;5082025;28;20058;-80
2024/01/03 09:11:50;;;;;;;4.75;1.63;;;7.20;99.90;;;;;;5074848;28;20044;-80
2024/01/03 09:14:20;;;;;;;6.60;1.55;;;7.20;99.90;;;;;;5088499;28;20051;-79
2024/01/03 09:16:50;;;;;;;5.50;0.98;;;7.30;99.90;;;;;;5075231;28;20051;-80
2024/01/03 09:19:21;;;;;;;3.03;1.25;;;7.30;99.90;;;;;;5074154;28;20048;-78
2024/01/03 09:21:50;;;;;;;4.05;1.40;;;7.30;99.90;;;;;;5090549;27;20052;-81
2024/01/03 09:24:19;;;;;;;4.18;0.70;;;7.30;99.90;;;;;;5090577;27;20131;-80
2024/01/03 09:26:48;;;;;;;2.47;0.85;;;7.30;99.90;;;;;;5068915;28;20127;-79
2024/01/03 09:29:18;;;;;;;5.05;1.95;;;7.40;99.90;;;;;;5086308;27;20056;-78
2024/01/03 09:31:46;;;;;;;2.95;1.30;;;7.40;99.90;;;;;;5094552;27;20125;-78
2024/01/03 09:34:15;;;;;;;5.55;1.23;;;7.40;99.90;;;;;;5092097;27;20050;-77
2024/01/03 09:36:45;;;;;;;4.10;0.68;;;7.40;99.90;;;;;;5075345;28;20481;-79
2024/01/03 09:39:16;;;;;;;3.00;1.00;;;7.40;99.90;;;;;;5092499;27;20078;-79
2024/01/03 09:41:44;;;;;;;4.40;1.30;;;7.40;99.90;;;;;;5075635;28;20071;-78
2024/01/03 09:44:14;;;;;;;10.27;4.22;;;7.50;99.90;;;;;;5078360;28;20058;-79
2024/01/03 09:46:43;;;;;;;5.80;2.90;;;7.50;99.90;;;;;;5073483;28;22864;-80
2024/01/03 09:49:12;;;;;;;7.38;2.85;;;7.60;99.90;;;;;;5086146;27;20052;-80
2024/01/03 09:51:42;;;;;;;7.38;2.17;;;7.60;99.90;;;;;;5088202;27;20044;-79
2024/01/03 09:54:12;;;;;;;4.28;1.10;;;7.60;99.90;;;;;;5091071;28;20044;-79
2024/01/03 09:56:42;;;;;;;3.33;1.00;;;7.70;99.90;;;;;;5089943;27;20101;-78
2024/01/03 09:59:11;;;;;;;2.97;1.00;;;7.60;99.90;;;;;;5074484;28;20082;-78
2024/01/03 10:01:39;;;;;;;1.80;0.70;;;7.70;99.90;;;;;;5089314;27;20048;-79
2024/01/03 10:04:08;;;;;;;3.60;0.90;;;7.70;99.90;;;;;;5074497;28;20078;-80
2024/01/03 10:06:52;;;;;;;4.25;1.35;;;7.80;99.90;;;;;;5045049;28;20047;-80
2024/01/03 10:09:22;;;;;;;4.72;1.63;;;8.10;99.90;;;;;;5090981;27;20227;-80
2024/01/03 10:11:53;;;;;;;2.25;0.90;;;8.10;99.90;;;;;;5087546;27;20047;-79
2024/01/03 10:14:23;;;;;;;2.25;0.90;;;8.10;99.90;;;;;;5069434;28;20051;-79
2024/01/03 10:16:51;;;;;;;6.28;1.35;;;8.30;99.90;;;;;;5079460;28;20044;-78
2024/01/03 10:19:22;;;;;;;8.05;1.83;;;8.30;99.90;;;;;;5072651;28;20158;-79
2024/01/03 10:21:52;;;;;;;5.82;1.77;;;8.30;99.90;;;;;;5070745;28;20130;-79
2024/01/03 10:24:23;;;;;;;10.05;4.45;;;8.40;99.90;;;;;;5087666;27;20048;-78
2024/01/03 10:26:52;;;;;;;5.90;1.90;;;8.50;99.90;;;;;;5081217;28;20052;-78
2024/01/03 10:29:22;;;;;;;4.03;2.15;;;8.70;99.90;;;;;;5070980;28;20040;-78
2024/01/03 10:31:51;;;;;;;3.80;1.73;;;8.90;99.90;;;;;;5072284;28;20090;-78
2024/01/03 10:34:23;;;;;;;4.18;1.48;;;9.10;99.90;;;;;;5091152;27;20036;-79
2024/01/03 10:36:56;;;;;;;4.88;1.70;;;9.40;99.90;;;;;;5075253;28;20056;-79
2024/01/03 10:39:26;;;;;;;3.80;1.40;;;9.50;99.90;;;;;;5091138;27;21111;-77
2024/01/03 10:41:55;;;;;;;3.80;1.45;;;9.50;99.90;;;;;;5088366;27;20059;-78
2024/01/03 10:44:24;;;;;;;4.65;1.60;;;9.40;99.90;;;;;;5070521;28;20040;-77
2024/01/03 10:46:54;;;;;;;1.90;0.60;;;9.40;99.90;;;;;;5082097;28;20073;-82
2024/01/03 10:49:23;;;;;;;4.10;1.00;;;9.40;99.90;;;;;;5077102;28;20048;-85
2024/01/03 10:52:01;;;;;;;3.30;1.77;;;9.30;99.90;;;;;;5092700;27;20200;-83
2024/01/03 10:54:39;;;;;;;3.30;1.20;;;9.50;99.90;;;;;;5071580;28;22230;-81
2024/01/03 10:57:09;;;;;;;4.63;1.33;;;9.60;99.90;;;;;;5072712;28;20422;-81
2024/01/03 10:59:44;;;;;;;5.20;1.88;;;9.70;99.90;;;;;;5081208;28;20056;-82
2024/01/03 11:02:22;;;;;;;5.05;1.73;;;9.70;99.90;;;;;;5087517;27;20055;-84
2024/01/03 11:04:57;;;;;;;3.67;1.23;;;9.70;99.90;;;;;;5072688;28;20040;-84
2024/01/03 11:07:34;;;;;;;6.63;2.63;;;9.80;99.90;;;;;;5070233;28;20056;-83
2024/01/03 11:10:05;;;;;;;4.93;1.80;;;9.80;99.90;;;;;;5097508;28;20116;-82
2024/01/03 11:12:34;;;;;;;4.15;1.38;;;9.70;99.90;;;;;;5081199;28;20418;-83
2024/01/03 11:15:24;;;;;;;5.70;1.60;;;9.80;99.90;;;;;;5088938;28;20127;-83
2024/01/03 11:18:10;;;;;;;3.38;1.33;;;9.80;99.90;;;;;;5070159;28;20087;-82
2024/01/03 11:20:39;;;;;;;3.17;0.73;;;10.00;99.90;;;;;;5073444;28;20079;-82
2024/01/03 11:23:08;;;;;;;2.05;0.60;;;10.20;99.90;;;;;;5083160;28;20036;-84
2024/01/03 11:25:51;;;;;;;2.40;0.73;;;10.50;99.90;;;;;;5074366;28;20205;-82
2024/01/03 11:28:33;;;;;;;8.13;1.65;;;10.70;99.90;;;;;;5086935;28;20063;-83
2024/01/03 11:31:01;;;;;;;2.50;0.80;;;10.80;99.90;;;;;;5097142;28;20142;-83
2024/01/03 11:33:31;;;;;;;2.35;0.52;;;10.80;99.90;;;;;;5069769;28;20052;-83
2024/01/03 11:36:01;;;;;;;3.45;1.45;;;10.60;99.90;;;;;;5065807;28;20139;-82
2024/01/03 11:38:39;;;;;;;1.92;0.85;;;10.50;99.90;;;;;;5074091;28;20166;-83
2024/01/03 11:41:09;;;;;;;3.58;1.02;;;10.50;99.90;;;;;;5078239;28;20059;-83
2024/01/03 11:43:38;;;;;;;2.70;0.88;;;10.60;99.90;;;;;;5076712;28;20517;-83
2024/01/03 11:46:08;;;;;;;6.55;1.25;;;10.50;99.90;;;;;;5088043;27;20051;-82
2024/01/03 11:48:38;;;;;;;3.42;1.10;;;10.50;99.90;;;;;;5073306;28;20067;-83
2024/01/03 11:51:22;;;;;;;4.32;1.30;;;10.20;99.90;;;;;;5076373;28;20058;-83
2024/01/03 11:53:52;;;;;;;2.55;1.00;;;10.40;99.90;;;;;;5067776;28;20051;-83
2024/01/03 11:56:32;;;;;;;1.67;0.60;;;10.40;99.90;;;;;;5071129;28;20052;-82
2024/01/03 11:59:03;;;;;;;3.58;1.40;;;10.30;99.90;;;;;;5071827;28;20048;-82
2024/01/03 12:01:32;;;;;;;4.45;1.33;;;10.30;99.90;;;;;;5072797;28;20217;-83
2024/01/03 12:04:11;;;;;;;4.88;1.88;;;10.20;99.90;;;;;;5079041;28;20055;-83
2024/01/03 12:06:40;;;;;;;4.78;1.58;;;10.20;99.90;;;;;;5070982;28;20056;-83
2024/01/03 12:09:10;;;;;;;6.25;2.58;;;10.30;99.90;;;;;;5089926;27;20059;-81
2024/01/03 12:11:41;;;;;;;5.32;1.83;;;10.20;99.90;;;;;;5091334;27;20060;-82
2024/01/03 12:14:09;;;;;;;14.77;5.18;;;10.20;99.90;;;;;;5076505;28;20060;-84
2024/01/03 12:16:46;;;;;;;11.77;5.50;;;10.20;99.90;;;;;;5074906;28;20051;-82
2024/01/03 12:19:23;;;;;;;37.05;11.85;;;10.20;99.90;;;;;;5074735;28;20048;-82
2024/01/03 12:21:56;;;;;;;29.35;11.13;;;10.10;99.90;;;;;;5090889;27;20541;-82
2024/01/03 12:24:38;;;;;;;6.97;2.65;;;10.20;99.90;;;;;;5073283;28;20079;-83
2024/01/03 12:27:09;;;;;;;6.93;2.35;;;10.10;99.90;;;;;;5074341;28;20071;-83
2024/01/03 12:29:39;;;;;;;8.57;2.33;;;10.00;99.90;;;;;;5076722;28;20158;-82
2024/01/03 12:32:10;;;;;;;5.70;1.33;;;10.10;99.90;;;;;;5075105;28;21082;-82
2024/01/03 12:34:39;;;;;;;3.25;1.25;;;10.00;99.90;;;;;;5073295;28;20055;-82
2024/01/03 12:37:07;;;;;;;3.00;0.57;;;10.10;99.90;;;;;;5074586;28;20055;-83
2024/01/03 12:39:40;;;;;;;1.83;0.45;;;10.10;99.90;;;;;;5090984;27;20142;-83
2024/01/03 12:42:12;;;;;;;2.65;0.57;;;10.00;99.90;;;;;;5094808;27;20067;-82
2024/01/03 12:44:45;;;;;;;4.20;0.82;;;10.10;99.90;;;;;;5089289;27;20066;-82
2024/01/03 12:47:15;;;;;;;1.77;0.47;;;10.00;99.90;;;;;;5079902;28;20353;-84
2024/01/03 12:49:44;;;;;;;1.73;0.50;;;10.10;99.90;;;;;;5072181;28;20178;-82
2024/01/03 12:52:13;;;;;;;1.80;0.85;;;10.00;99.90;;;;;;5091971;27;20047;-83
2024/01/03 12:54:41;;;;;;;1.40;0.50;;;10.00;99.90;;;;;;5088870;27;22583;-82
2024/01/03 12:57:11;;;;;;;3.67;1.70;;;10.00;99.90;;;;;;5073793;28;20048;-81
2024/01/03 12:59:40;;;;;;;6.68;2.10;;;10.10;99.90;;;;;;5075847;28;20056;-81
2024/01/03 13:02:09;;;;;;;7.72;2.28;;;10.00;99.90;;;;;;5091104;27;20040;-82
2024/01/03 13:04:38;;;;;;;5.55;2.67;;;10.10;99.90;;;;;;5087336;27;20143;-82